Time;durP1;ratioP1;P1;durP2;ratioP2;P2;SDS_P1;SDS_P2;PMS_P1;PMS_P2;Temp;Humidity;BMP_temperature;BMP_pressure;BME280_temperature;BME280_humidity;BME280_pressure;Samples;Min_cycle;Max_cycle;Signal;HPM_P1;HPM_P2
2022/05/15 00:00:50;;;;;;;0.80;0.50;;;13.90;99.90;;;;;;5012282;28;20214;-71
2022/05/15 00:03:22;;;;;;;0.80;0.60;;;13.90;99.90;;;;;;5011775;28;20422;-71
2022/05/15 00:06:02;;;;;;;1.13;1.03;;;13.90;99.90;;;;;;5012220;28;20168;-71
2022/05/15 00:08:30;;;;;;;0.80;0.50;;;13.90;99.90;;;;;;5011948;28;20419;-71
2022/05/15 00:10:56;;;;;;;0.80;0.60;;;13.80;99.90;;;;;;5012167;28;20775;-71
2022/05/15 00:13:23;;;;;;;0.80;0.50;;;13.80;99.90;;;;;;5012223;28;20976;-72
2022/05/15 00:15:51;;;;;;;0.80;0.50;;;13.80;99.90;;;;;;5012094;28;20415;-71
2022/05/15 00:18:19;;;;;;;1.00;0.60;;;13.80;99.90;;;;;;5011655;28;21003;-71
2022/05/15 00:20:44;;;;;;;0.80;0.50;;;13.70;99.90;;;;;;5011737;28;20500;-71
2022/05/15 00:23:11;;;;;;;0.80;0.50;;;13.70;99.90;;;;;;5013617;28;20411;-72
2022/05/15 00:25:37;;;;;;;0.90;0.70;;;13.70;99.90;;;;;;5015992;28;20672;-72
2022/05/15 00:28:03;;;;;;;0.97;0.60;;;13.60;99.90;;;;;;5014139;28;20500;-71
2022/05/15 00:30:29;;;;;;;0.80;0.60;;;13.60;99.90;;;;;;5015972;28;20777;-71
2022/05/15 00:32:55;;;;;;;0.80;0.60;;;13.60;99.90;;;;;;5015895;28;20403;-71
2022/05/15 00:35:21;;;;;;;0.90;0.70;;;13.60;99.90;;;;;;5015753;28;20403;-71
2022/05/15 00:37:47;;;;;;;0.80;0.50;;;13.50;99.90;;;;;;5015418;28;20187;-71
2022/05/15 00:40:16;;;;;;;0.80;0.50;;;13.50;99.90;;;;;;5014454;28;20553;-71
2022/05/15 00:42:42;;;;;;;0.80;0.60;;;13.50;99.90;;;;;;5014502;28;20183;-71
2022/05/15 00:45:08;;;;;;;0.80;0.50;;;13.40;99.90;;;;;;5015617;28;20901;-71
2022/05/15 00:47:34;;;;;;;0.80;0.50;;;13.40;99.90;;;;;;5015185;28;20180;-72
2022/05/15 00:50:05;;;;;;;0.80;0.50;;;13.40;99.90;;;;;;5015501;28;20465;-71
2022/05/15 00:52:34;;;;;;;0.80;0.60;;;13.40;99.90;;;;;;5015561;28;20990;-71
2022/05/15 00:55:07;;;;;;;0.80;0.50;;;13.30;99.90;;;;;;5014137;28;20422;-71
2022/05/15 00:57:49;;;;;;;0.80;0.50;;;13.30;99.90;;;;;;5015184;28;20900;-72
2022/05/15 01:00:21;;;;;;;0.80;0.60;;;13.30;99.90;;;;;;5015230;28;20900;-71
2022/05/15 01:02:53;;;;;;;0.80;0.50;;;13.30;99.90;;;;;;5014007;28;20407;-71
2022/05/15 01:05:19;;;;;;;0.80;0.50;;;13.20;99.90;;;;;;5014023;28;20472;-71
2022/05/15 01:07:45;;;;;;;0.80;0.60;;;13.20;99.90;;;;;;5014922;28;20501;-71
2022/05/15 01:10:11;;;;;;;0.80;0.60;;;13.20;99.90;;;;;;5013816;28;20795;-72
2022/05/15 01:12:40;;;;;;;0.80;0.50;;;13.20;99.90;;;;;;5015116;28;20543;-71
2022/05/15 01:15:08;;;;;;;1.00;0.90;;;13.10;99.90;;;;;;5015000;28;20411;-71
2022/05/15 01:17:33;;;;;;;0.90;0.60;;;13.10;99.90;;;;;;5014587;28;20442;-71
2022/05/15 01:20:09;;;;;;;1.23;0.80;;;13.10;99.90;;;;;;5014827;28;20553;-72
2022/05/15 01:22:35;;;;;;;0.80;0.50;;;13.10;99.90;;;;;;5014904;28;20533;-71
2022/05/15 01:25:02;;;;;;;0.80;0.60;;;13.00;99.90;;;;;;5013749;28;20414;-71
2022/05/15 01:27:28;;;;;;;1.17;1.07;;;13.00;99.90;;;;;;5014590;28;20769;-71
2022/05/15 01:29:54;;;;;;;0.80;0.50;;;13.00;99.90;;;;;;5013229;28;20434;-71
2022/05/15 01:32:19;;;;;;;0.80;0.50;;;12.90;99.90;;;;;;5014374;28;20417;-71
2022/05/15 01:34:45;;;;;;;0.80;0.50;;;12.90;99.90;;;;;;5014231;28;20173;-71
2022/05/15 01:37:10;;;;;;;0.80;0.70;;;12.90;99.90;;;;;;5015107;28;20177;-71
2022/05/15 01:39:37;;;;;;;0.80;0.50;;;12.90;99.90;;;;;;5014597;28;20532;-71
2022/05/15 01:42:03;;;;;;;0.80;0.50;;;12.80;99.90;;;;;;5014821;28;20581;-71
2022/05/15 01:44:30;;;;;;;0.80;0.50;;;12.80;99.90;;;;;;5014854;28;20403;-71
2022/05/15 01:46:56;;;;;;;0.80;0.50;;;12.80;99.90;;;;;;5014793;28;20923;-72
2022/05/15 01:49:21;;;;;;;0.80;0.50;;;12.70;99.90;;;;;;5014211;28;20427;-71
2022/05/15 01:51:47;;;;;;;0.80;0.60;;;12.70;99.90;;;;;;5014619;28;20172;-71
2022/05/15 01:54:13;;;;;;;0.80;0.50;;;12.70;99.90;;;;;;5014477;28;20668;-71
2022/05/15 01:56:40;;;;;;;0.80;0.53;;;12.70;99.90;;;;;;5014260;28;20183;-71
2022/05/15 01:59:07;;;;;;;0.80;0.57;;;12.60;99.90;;;;;;5012423;28;20925;-71
2022/05/15 02:01:33;;;;;;;0.80;0.50;;;12.60;99.90;;;;;;5014178;28;20414;-71
2022/05/15 02:03:59;;;;;;;0.80;0.60;;;12.60;99.90;;;;;;5014170;28;20494;-71
2022/05/15 02:06:24;;;;;;;1.13;0.60;;;12.60;99.90;;;;;;5012920;28;20872;-71
2022/05/15 02:08:50;;;;;;;0.80;0.63;;;12.60;99.90;;;;;;5013817;28;20192;-71
2022/05/15 02:11:16;;;;;;;0.80;0.50;;;12.50;99.90;;;;;;5014010;28;20168;-71
2022/05/15 02:13:42;;;;;;;0.80;0.60;;;12.50;99.90;;;;;;5014008;28;20247;-71
2022/05/15 02:16:07;;;;;;;0.90;0.60;;;12.50;99.90;;;;;;5012682;28;20411;-71
2022/05/15 02:18:33;;;;;;;0.80;0.60;;;12.50;99.90;;;;;;5013578;28;20254;-71
2022/05/15 02:20:59;;;;;;;0.80;0.50;;;12.50;99.90;;;;;;5012512;28;20210;-71
2022/05/15 02:23:26;;;;;;;0.80;0.50;;;12.50;99.90;;;;;;5013866;28;20415;-71
2022/05/15 02:25:52;;;;;;;0.80;0.50;;;12.50;99.90;;;;;;5013505;28;20189;-71
2022/05/15 02:28:18;;;;;;;0.80;0.50;;;12.50;99.90;;;;;;5013633;28;20434;-71
2022/05/15 02:30:44;;;;;;;0.80;0.50;;;12.40;99.90;;;;;;5013411;28;20452;-71
2022/05/15 02:33:09;;;;;;;0.80;0.60;;;12.40;99.90;;;;;;5012369;28;20403;-71
2022/05/15 02:35:35;;;;;;;0.80;0.57;;;12.40;99.90;;;;;;5013612;28;20303;-71
2022/05/15 02:38:00;;;;;;;0.80;0.50;;;12.40;99.90;;;;;;5013287;28;20233;-71
2022/05/15 02:40:26;;;;;;;0.80;0.50;;;12.30;99.90;;;;;;5013403;28;20550;-71
2022/05/15 02:42:55;;;;;;;0.80;0.50;;;12.40;99.90;;;;;;5013551;28;20157;-71
2022/05/15 02:45:21;;;;;;;0.80;0.60;;;12.30;99.90;;;;;;5011240;28;20169;-71
2022/05/15 02:47:47;;;;;;;0.80;0.50;;;12.30;99.90;;;;;;5012937;28;20935;-71
2022/05/15 02:52:57;;;;;;;0.80;0.50;;;12.30;99.90;;;;;;5013355;28;20421;-71
2022/05/15 02:55:24;;;;;;;0.80;0.50;;;12.20;99.90;;;;;;5012991;28;20485;-71
2022/05/15 02:57:51;;;;;;;2.50;0.60;;;12.20;99.90;;;;;;5013060;28;20175;-71
2022/05/15 03:00:18;;;;;;;1.00;0.80;;;12.20;99.90;;;;;;5013018;28;20820;-70
2022/05/15 03:02:44;;;;;;;1.77;0.70;;;12.20;99.90;;;;;;5011843;28;20946;-71
2022/05/15 03:05:12;;;;;;;0.80;0.50;;;12.20;99.90;;;;;;5011747;28;20399;-71
2022/05/15 03:07:38;;;;;;;0.87;0.63;;;12.10;99.90;;;;;;5011648;28;20201;-71
2022/05/15 03:10:05;;;;;;;0.80;0.50;;;12.10;99.90;;;;;;5011537;28;20478;-71
2022/05/15 03:12:31;;;;;;;0.80;0.50;;;12.10;99.90;;;;;;5012865;28;20403;-71
2022/05/15 03:14:56;;;;;;;0.80;0.50;;;12.10;99.90;;;;;;5011199;28;20434;-72
2022/05/15 03:17:22;;;;;;;0.80;0.60;;;12.10;99.90;;;;;;5012715;28;20191;-72
2022/05/15 03:19:48;;;;;;;0.90;0.60;;;12.10;99.90;;;;;;5012573;28;20199;-71
2022/05/15 03:22:13;;;;;;;0.80;0.50;;;12.00;99.90;;;;;;5011450;28;20180;-71
2022/05/15 03:24:39;;;;;;;0.80;0.50;;;12.00;99.90;;;;;;5011535;28;20426;-71
2022/05/15 03:27:05;;;;;;;0.80;0.50;;;12.00;99.90;;;;;;5012589;28;20164;-71
2022/05/15 03:29:30;;;;;;;0.80;0.50;;;11.90;99.90;;;;;;5010917;28;20191;-71
2022/05/15 03:31:57;;;;;;;0.80;0.50;;;12.00;99.90;;;;;;5012685;28;20270;-71
2022/05/15 03:34:23;;;;;;;0.80;0.50;;;11.90;99.90;;;;;;5012574;28;20168;-71
2022/05/15 03:36:53;;;;;;;0.80;0.60;;;11.90;99.90;;;;;;5012515;28;20483;-71
2022/05/15 03:39:20;;;;;;;0.80;0.60;;;11.90;99.90;;;;;;5012230;28;20447;-71
2022/05/15 03:41:47;;;;;;;0.80;0.60;;;11.90;99.90;;;;;;5012539;28;20403;-71
2022/05/15 03:44:13;;;;;;;0.80;0.50;;;11.90;99.90;;;;;;5012472;28;20815;-72
2022/05/15 03:46:39;;;;;;;0.80;0.50;;;11.90;99.90;;;;;;5012375;28;20396;-71
2022/05/15 03:49:06;;;;;;;0.80;0.60;;;11.90;99.90;;;;;;5011932;28;20192;-71
2022/05/15 03:51:32;;;;;;;0.80;0.60;;;11.90;99.90;;;;;;5012544;28;20403;-71
2022/05/15 03:53:58;;;;;;;0.80;0.50;;;11.90;99.90;;;;;;5011095;28;20778;-72
2022/05/15 03:59:07;;;;;;;1.20;0.60;;;11.90;99.90;;;;;;5012208;28;20414;-72
2022/05/15 04:01:33;;;;;;;0.80;0.70;;;11.90;99.90;;;;;;5010928;28;20404;-71
2022/05/15 04:03:59;;;;;;;0.80;0.50;;;11.90;99.90;;;;;;5012181;28;20234;-71
2022/05/15 04:06:25;;;;;;;0.80;0.50;;;11.90;99.90;;;;;;5012235;28;20637;-71
2022/05/15 04:08:51;;;;;;;0.80;0.50;;;11.90;99.90;;;;;;5011985;28;20431;-71
2022/05/15 04:11:17;;;;;;;0.80;0.60;;;11.90;99.90;;;;;;5012128;28;20222;-71
2022/05/15 04:13:44;;;;;;;0.80;0.50;;;11.90;99.90;;;;;;5012073;28;20434;-71
2022/05/15 04:16:09;;;;;;;0.80;0.60;;;11.90;99.90;;;;;;5011882;28;20403;-71
2022/05/15 04:18:35;;;;;;;0.80;0.50;;;12.00;99.90;;;;;;5010534;28;20447;-71
2022/05/15 04:21:01;;;;;;;0.80;0.57;;;12.00;99.90;;;;;;5012098;28;20227;-71
2022/05/15 04:23:26;;;;;;;0.80;0.50;;;12.00;99.90;;;;;;5012020;28;20175;-72
2022/05/15 04:25:52;;;;;;;0.80;0.50;;;12.10;99.90;;;;;;5010831;28;20203;-72
2022/05/15 04:28:17;;;;;;;0.80;0.50;;;12.10;99.90;;;;;;5010327;28;20192;-71
2022/05/15 04:30:43;;;;;;;0.80;0.50;;;12.10;99.90;;;;;;5010773;28;20657;-71
2022/05/15 04:33:08;;;;;;;1.00;0.83;;;12.20;99.90;;;;;;5011922;28;20596;-71
2022/05/15 04:35:34;;;;;;;0.80;0.50;;;12.20;99.90;;;;;;5011912;28;20182;-72
2022/05/15 04:38:00;;;;;;;1.47;0.63;;;12.30;99.90;;;;;;5011538;28;20165;-71
2022/05/15 04:40:25;;;;;;;0.80;0.60;;;12.30;99.90;;;;;;5011872;28;20196;-71
2022/05/15 04:42:51;;;;;;;0.80;0.60;;;12.30;99.90;;;;;;5010590;28;20709;-71
2022/05/15 04:45:17;;;;;;;1.30;1.20;;;12.40;99.90;;;;;;5011895;28;20175;-72
2022/05/15 04:47:45;;;;;;;1.43;0.93;;;12.40;99.90;;;;;;5010576;28;20190;-71
2022/05/15 04:50:11;;;;;;;1.10;0.90;;;12.50;99.90;;;;;;5011483;28;20474;-71
2022/05/15 04:52:36;;;;;;;1.00;0.63;;;12.60;99.90;;;;;;5010181;28;20987;-71
2022/05/15 04:55:02;;;;;;;0.90;0.73;;;12.60;99.90;;;;;;5011340;28;20549;-71
2022/05/15 04:57:28;;;;;;;1.20;1.00;;;12.70;99.90;;;;;;5010526;28;20180;-71
2022/05/15 04:59:53;;;;;;;1.40;0.87;;;12.80;99.90;;;;;;5009992;28;20196;-72
2022/05/15 05:02:19;;;;;;;0.90;0.80;;;12.90;99.90;;;;;;5010244;28;20684;-71
2022/05/15 05:04:44;;;;;;;1.20;1.10;;;13.00;99.90;;;;;;5011328;28;20169;-71
2022/05/15 05:07:10;;;;;;;1.47;1.10;;;13.00;99.90;;;;;;5011482;28;20295;-71
2022/05/15 05:09:35;;;;;;;3.53;3.27;;;13.20;99.90;;;;;;5011216;28;20195;-72
2022/05/15 05:12:01;;;;;;;2.03;1.90;;;13.20;99.90;;;;;;5014957;28;21130;-71
2022/05/15 05:14:26;;;;;;;1.20;0.97;;;13.40;99.90;;;;;;5014784;28;20175;-71
2022/05/15 05:16:52;;;;;;;0.90;0.70;;;13.50;99.90;;;;;;5013427;28;20568;-71
2022/05/15 05:19:17;;;;;;;1.60;1.33;;;13.60;99.90;;;;;;5014287;28;20204;-71
2022/05/15 05:21:43;;;;;;;1.13;1.03;;;13.70;99.90;;;;;;5014661;28;20243;-72
2022/05/15 05:24:09;;;;;;;1.53;1.43;;;13.80;99.90;;;;;;5015060;28;20683;-71
2022/05/15 05:26:34;;;;;;;1.83;1.03;;;14.00;99.90;;;;;;5014486;28;20193;-71
2022/05/15 05:29:00;;;;;;;1.30;1.20;;;14.10;99.90;;;;;;5012897;28;20192;-72
2022/05/15 05:31:25;;;;;;;3.40;2.20;;;14.20;99.90;;;;;;5013226;28;20172;-73
2022/05/15 05:33:51;;;;;;;1.60;1.10;;;14.40;99.90;;;;;;5014433;28;20980;-72
2022/05/15 05:36:17;;;;;;;1.33;1.23;;;14.60;99.90;;;;;;5014485;28;20196;-72
2022/05/15 05:38:42;;;;;;;2.17;1.53;;;14.70;99.90;;;;;;5012881;28;20262;-71
2022/05/15 05:41:08;;;;;;;1.30;1.20;;;14.90;99.90;;;;;;5014395;28;20275;-71
2022/05/15 05:43:34;;;;;;;1.83;1.50;;;15.00;99.90;;;;;;5013043;28;20183;-71
2022/05/15 05:45:59;;;;;;;2.63;1.70;;;15.20;99.90;;;;;;5013654;28;20180;-71
2022/05/15 05:48:25;;;;;;;2.17;1.97;;;15.40;99.90;;;;;;5013307;28;20214;-71
2022/05/15 05:50:51;;;;;;;1.53;1.40;;;15.70;99.90;;;;;;5013821;28;20414;-71
2022/05/15 05:53:17;;;;;;;1.90;1.73;;;16.00;99.90;;;;;;5014154;28;20422;-72
2022/05/15 05:55:43;;;;;;;2.00;1.70;;;16.20;99.90;;;;;;5012292;28;20176;-72
2022/05/15 05:58:09;;;;;;;7.13;2.73;;;16.60;99.90;;;;;;5013435;28;20258;-71
2022/05/15 06:00:37;;;;;;;1.17;1.07;;;16.80;99.90;;;;;;5013388;28;20868;-72
2022/05/15 06:05:48;;;;;;;2.10;1.80;;;17.50;99.90;;;;;;5014006;28;20410;-72
2022/05/15 06:08:15;;;;;;;2.90;2.30;;;17.80;99.90;;;;;;5013644;28;20423;-72
2022/05/15 06:10:42;;;;;;;2.27;1.90;;;18.00;99.90;;;;;;5012584;28;20630;-71
2022/05/15 06:13:07;;;;;;;1.13;1.03;;;18.30;99.90;;;;;;5013743;28;20410;-72
2022/05/15 06:15:34;;;;;;;1.97;1.30;;;18.60;99.90;;;;;;5012504;28;20420;-72
2022/05/15 06:18:01;;;;;;;1.50;1.40;;;18.80;99.90;;;;;;5013325;28;20438;-73
2022/05/15 06:20:29;;;;;;;1.67;1.57;;;19.00;99.90;;;;;;5011989;28;20455;-72
2022/05/15 06:22:55;;;;;;;1.57;1.47;;;19.30;99.90;;;;;;5013518;28;20399;-72
2022/05/15 06:25:21;;;;;;;2.00;1.80;;;19.70;99.90;;;;;;5013400;28;20403;-72
2022/05/15 06:27:46;;;;;;;2.40;1.87;;;20.00;99.90;;;;;;5013891;28;20403;-72
2022/05/15 06:30:13;;;;;;;1.77;1.63;;;20.40;99.90;;;;;;5012069;28;20474;-72
2022/05/15 06:32:39;;;;;;;2.03;1.50;;;20.80;99.90;;;;;;5013526;28;20243;-72
2022/05/15 06:35:07;;;;;;;1.50;1.40;;;21.20;99.90;;;;;;5011805;28;20415;-72
2022/05/15 06:37:33;;;;;;;2.43;2.07;;;21.70;99.90;;;;;;5013339;28;20418;-72
2022/05/15 06:39:58;;;;;;;1.60;1.50;;;22.00;99.90;;;;;;5012737;28;21021;-72
2022/05/15 06:42:25;;;;;;;2.73;2.07;;;22.20;99.90;;;;;;5013183;28;20438;-72
2022/05/15 06:44:51;;;;;;;3.80;1.77;;;22.30;99.90;;;;;;5013123;28;20164;-72
2022/05/15 06:47:16;;;;;;;2.20;1.53;;;22.50;99.90;;;;;;5013072;28;20408;-72
2022/05/15 06:49:42;;;;;;;1.83;1.70;;;22.80;99.90;;;;;;5012758;28;20192;-72
2022/05/15 06:52:07;;;;;;;1.30;1.20;;;23.30;99.90;;;;;;5013075;28;20165;-72
2022/05/15 06:54:33;;;;;;;2.17;1.97;;;23.80;99.90;;;;;;5012943;28;20168;-72
2022/05/15 06:59:43;;;;;;;1.60;1.50;;;24.90;99.80;;;;;;5012579;28;20211;-72
2022/05/15 07:02:09;;;;;;;2.37;1.80;;;25.40;97.10;;;;;;5012855;28;20773;-72
2022/05/15 07:04:35;;;;;;;1.60;1.40;;;26.10;94.70;;;;;;5012783;28;20178;-73
2022/05/15 07:07:00;;;;;;;1.90;1.70;;;26.50;91.50;;;;;;5012834;28;20184;-72
2022/05/15 07:09:27;;;;;;;3.00;1.83;;;26.80;88.10;;;;;;5010994;28;20470;-72
2022/05/15 07:11:53;;;;;;;1.90;1.57;;;27.10;83.70;;;;;;5012880;28;20183;-73
2022/05/15 07:14:18;;;;;;;1.23;1.13;;;27.50;80.80;;;;;;5012549;28;20449;-73
2022/05/15 07:16:44;;;;;;;2.30;1.47;;;28.20;77.00;;;;;;5012610;28;20191;-72
2022/05/15 07:19:09;;;;;;;1.17;1.07;;;29.20;73.70;;;;;;5012459;28;20207;-72
2022/05/15 07:21:35;;;;;;;1.40;1.03;;;30.00;68.20;;;;;;5012665;28;20219;-72
2022/05/15 07:24:00;;;;;;;1.53;1.43;;;30.60;63.60;;;;;;5012694;28;20199;-73
2022/05/15 07:26:26;;;;;;;1.30;1.20;;;31.30;58.90;;;;;;5012646;28;20200;-73
2022/05/15 07:28:51;;;;;;;1.83;1.10;;;32.10;56.30;;;;;;5010974;28;20192;-73
2022/05/15 07:31:18;;;;;;;1.20;1.10;;;32.80;53.80;;;;;;5012212;28;20191;-73
2022/05/15 07:33:45;;;;;;;1.63;1.43;;;33.70;52.40;;;;;;5012356;28;20673;-73
2022/05/15 07:36:11;;;;;;;1.67;1.57;;;34.40;50.30;;;;;;5012386;28;20448;-73
2022/05/15 07:38:37;;;;;;;1.47;1.37;;;34.90;48.60;;;;;;5011941;28;20529;-73
2022/05/15 07:41:03;;;;;;;1.20;1.10;;;35.40;47.40;;;;;;5010925;28;20613;-73
2022/05/15 07:43:28;;;;;;;1.57;1.30;;;36.00;45.90;;;;;;5012213;28;20165;-73
2022/05/15 07:45:54;;;;;;;1.23;1.10;;;36.80;43.40;;;;;;5012159;28;20403;-73
2022/05/15 07:48:19;;;;;;;1.50;1.40;;;37.60;41.40;;;;;;5011845;28;20188;-71
2022/05/15 07:50:45;;;;;;;1.40;1.30;;;38.10;38.90;;;;;;5012176;28;20168;-71
2022/05/15 07:53:11;;;;;;;2.70;1.30;;;38.40;38.40;;;;;;5012000;28;20251;-71
2022/05/15 07:55:36;;;;;;;4.33;1.60;;;38.90;37.70;;;;;;5011940;28;20222;-71
2022/05/15 07:58:02;;;;;;;1.33;1.23;;;39.60;36.80;;;;;;5011950;28;20403;-71
2022/05/15 08:00:28;;;;;;;2.37;1.53;;;40.10;35.70;;;;;;5010411;28;20192;-72
2022/05/15 08:03:07;;;;;;;1.60;1.50;;;40.60;34.70;;;;;;5011667;28;20415;-71
2022/05/15 08:08:18;;;;;;;3.93;1.87;;;41.40;33.10;;;;;;5011760;28;20392;-71
2022/05/15 08:10:44;;;;;;;1.37;1.27;;;42.00;32.10;;;;;;5011882;28;20865;-71
2022/05/15 08:13:16;;;;;;;1.37;1.27;;;42.50;31.30;;;;;;5011539;28;20218;-72
2022/05/15 08:15:42;;;;;;;4.70;2.80;;;43.10;30.70;;;;;;5011569;28;20772;-71
2022/05/15 08:23:42;;;;;;;1.43;1.33;;;44.80;29.80;;;;;;5011462;28;20397;-72
2022/05/15 08:26:07;;;;;;;1.70;1.60;;;45.50;29.20;;;;;;5011256;28;20400;-72
2022/05/15 08:28:34;;;;;;;1.70;1.60;;;46.20;29.10;;;;;;5011447;28;20788;-72
2022/05/15 08:31:00;;;;;;;1.53;1.43;;;46.60;28.80;;;;;;5011710;28;20421;-72
2022/05/15 08:33:26;;;;;;;1.33;1.23;;;47.00;28.00;;;;;;5011616;28;20476;-72
2022/05/15 08:35:52;;;;;;;3.50;1.50;;;47.20;28.00;;;;;;5010403;28;20379;-72
2022/05/15 08:38:18;;;;;;;1.60;1.50;;;47.60;27.60;;;;;;5011386;28;20791;-72
2022/05/15 08:40:50;;;;;;;1.60;1.50;;;48.00;27.20;;;;;;5011626;28;20419;-72
2022/05/15 08:43:20;;;;;;;1.70;1.60;;;48.50;27.20;;;;;;5011539;28;20172;-72
2022/05/15 08:45:54;;;;;;;2.40;1.30;;;49.10;27.10;;;;;;5014013;28;20446;-72
2022/05/15 08:48:20;;;;;;;1.60;1.50;;;49.50;26.90;;;;;;5015120;28;20427;-72
2022/05/15 08:50:49;;;;;;;1.60;1.50;;;49.90;26.80;;;;;;5015268;28;20432;-72
2022/05/15 08:53:28;;;;;;;1.70;1.60;;;50.20;26.50;;;;;;5015138;28;20168;-72
2022/05/15 08:55:57;;;;;;;1.40;1.30;;;50.60;25.80;;;;;;5015211;28;20412;-72
2022/05/15 08:58:50;;;;;;;1.60;1.50;;;50.80;25.50;;;;;;5014867;28;20473;-72
2022/05/15 09:01:23;;;;;;;2.00;1.80;;;51.20;25.30;;;;;;5030403;28;20833;-72
2022/05/15 09:03:49;;;;;;;1.80;1.70;;;51.50;24.70;;;;;;5015047;28;20386;-72
2022/05/15 09:06:24;;;;;;;1.73;1.50;;;51.60;24.40;;;;;;5015052;28;21095;-72
2022/05/15 09:09:07;;;;;;;1.70;1.60;;;52.00;24.10;;;;;;5014698;28;20190;-73
2022/05/15 09:12:12;;;;;;;2.13;1.60;;;52.50;24.50;;;;;;5015027;28;20411;-73
2022/05/15 09:14:46;;;;;;;1.70;1.60;;;52.90;23.60;;;;;;5013534;28;20858;-73
2022/05/15 09:17:12;;;;;;;1.90;1.80;;;53.40;23.50;;;;;;5014754;28;20405;-73
2022/05/15 09:19:38;;;;;;;1.80;1.70;;;53.80;23.30;;;;;;5014368;28;20431;-73
2022/05/15 09:22:04;;;;;;;1.70;1.60;;;54.20;23.00;;;;;;5013442;28;20219;-73
2022/05/15 09:24:51;;;;;;;2.63;1.90;;;54.70;22.90;;;;;;5014460;28;20382;-73
2022/05/15 09:27:27;;;;;;;2.07;1.97;;;55.20;22.50;;;;;;5014869;28;20374;-73
2022/05/15 09:29:59;;;;;;;2.37;2.27;;;55.70;22.50;;;;;;5014290;28;20451;-73
2022/05/15 09:32:27;;;;;;;2.70;2.50;;;56.30;22.30;;;;;;5014669;28;20458;-73
2022/05/15 09:34:56;;;;;;;2.20;1.80;;;56.80;22.20;;;;;;5014556;28;20399;-73
2022/05/15 09:40:22;;;;;;;2.17;2.07;;;57.90;22.20;;;;;;5014275;28;20978;-73
2022/05/15 09:45:54;;;;;;;2.33;2.23;;;58.80;21.70;;;;;;5014561;28;20394;-73
2022/05/15 09:48:23;;;;;;;2.30;2.20;;;59.40;21.60;;;;;;5014164;28;20458;-73
2022/05/15 09:50:50;;;;;;;2.40;2.30;;;59.80;21.70;;;;;;5012828;28;21010;-73
2022/05/15 09:53:24;;;;;;;3.23;2.50;;;60.20;21.70;;;;;;5014182;28;20935;-73
2022/05/15 09:56:00;;;;;;;3.97;3.70;;;60.70;21.30;;;;;;5013599;28;20402;-73
2022/05/15 09:58:43;;;;;;;3.20;3.10;;;60.90;20.60;;;;;;5013835;28;20418;-73
2022/05/15 10:01:28;;;;;;;3.80;3.53;;;61.20;20.30;;;;;;5014034;28;20904;-73
2022/05/15 10:03:57;;;;;;;2.93;2.83;;;61.10;19.80;;;;;;5014070;28;20974;-73
2022/05/15 10:06:26;;;;;;;2.93;2.83;;;61.10;19.70;;;;;;5013925;28;20403;-73
2022/05/15 10:09:15;;;;;;;3.67;3.37;;;60.60;19.40;;;;;;5013734;28;20427;-73
2022/05/15 10:11:45;;;;;;;3.00;2.90;;;60.40;19.50;;;;;;5013885;28;20569;-73
2022/05/15 10:14:27;;;;;;;3.20;3.00;;;60.10;19.20;;;;;;5014242;28;20904;-73
2022/05/15 10:16:55;;;;;;;4.07;2.40;;;60.10;19.40;;;;;;5013878;28;20892;-73
2022/05/15 10:19:32;;;;;;;3.07;2.97;;;60.00;19.40;;;;;;5013271;28;20442;-73
2022/05/15 10:22:07;;;;;;;2.60;2.50;;;60.00;19.40;;;;;;5013696;28;20410;-73
2022/05/15 10:24:39;;;;;;;2.50;2.40;;;60.00;19.40;;;;;;5012385;28;20409;-73
2022/05/15 10:27:05;;;;;;;2.80;2.70;;;60.20;19.40;;;;;;5012287;28;20825;-73
2022/05/15 10:29:50;;;;;;;3.70;3.50;;;60.50;19.70;;;;;;5013153;28;20450;-73
2022/05/15 10:32:29;;;;;;;3.17;3.07;;;60.90;19.60;;;;;;5013357;28;20179;-73
2022/05/15 10:34:55;;;;;;;2.80;2.70;;;61.30;19.80;;;;;;5013456;28;20397;-73
2022/05/15 10:37:52;;;;;;;3.93;3.83;;;61.80;19.80;;;;;;5013281;28;20399;-74
2022/05/15 10:40:36;;;;;;;3.73;3.63;;;62.20;19.60;;;;;;5012975;28;20466;-74
2022/05/15 10:43:15;;;;;;;3.60;3.50;;;62.60;19.20;;;;;;5011958;28;20464;-74
2022/05/15 10:45:57;;;;;;;3.67;3.57;;;62.80;19.30;;;;;;5013274;28;20402;-73
2022/05/15 10:48:35;;;;;;;3.50;3.40;;;63.30;19.50;;;;;;5013235;28;20415;-74
2022/05/15 10:51:14;;;;;;;4.57;4.43;;;63.60;18.80;;;;;;5013172;28;20403;-74
2022/05/15 11:00:08;;;;;;;5.17;4.97;;;64.10;18.60;;;;;;5012776;28;20601;-74
2022/05/15 11:02:47;;;;;;;4.17;4.07;;;64.40;18.80;;;;;;5012858;28;20899;-74
2022/05/15 11:05:20;;;;;;;3.90;3.80;;;64.60;18.70;;;;;;5012814;28;20409;-74
2022/05/15 11:08:09;;;;;;;4.63;4.53;;;65.00;18.40;;;;;;5010837;28;20411;-74
2022/05/15 11:11:12;;;;;;;4.00;3.90;;;65.10;18.30;;;;;;5004455;28;20781;-74
2022/05/15 11:14:13;;;;;;;4.10;4.00;;;65.40;18.30;;;;;;5012679;28;20840;-74
2022/05/15 11:16:49;;;;;;;4.50;4.40;;;65.70;18.30;;;;;;5001921;28;20458;-73
2022/05/15 11:19:27;;;;;;;5.43;5.23;;;65.70;18.00;;;;;;5012092;28;20442;-73
2022/05/15 11:22:21;;;;;;;5.70;5.50;;;66.10;18.20;;;;;;5012641;28;20398;-74
2022/05/15 11:24:54;;;;;;;5.07;4.87;;;66.20;17.80;;;;;;5012520;28;20445;-74
2022/05/15 11:27:31;;;;;;;4.53;4.43;;;65.60;17.70;;;;;;5012506;28;20410;-73
2022/05/15 11:30:00;;;;;;;4.17;4.07;;;64.80;17.70;;;;;;5012227;28;20505;-73
2022/05/15 11:32:30;;;;;;;3.70;3.50;;;63.80;17.20;;;;;;5012461;28;20888;-73
2022/05/15 11:35:17;;;;;;;4.40;4.20;;;63.40;17.40;;;;;;5012351;28;20410;-73
2022/05/15 11:38:27;;;;;;;3.50;3.40;;;63.30;17.50;;;;;;5010984;28;20502;-73
2022/05/15 11:40:54;;;;;;;3.00;2.90;;;62.50;17.40;;;;;;5012055;28;20939;-73
2022/05/15 11:43:31;;;;;;;3.43;3.33;;;61.90;17.60;;;;;;5012249;28;20486;-73
2022/05/15 11:46:00;;;;;;;3.10;3.00;;;62.00;17.90;;;;;;5010979;28;20418;-73
2022/05/15 11:48:39;;;;;;;3.33;3.13;;;62.20;18.10;;;;;;5011930;28;20426;-73
2022/05/15 11:51:20;;;;;;;3.93;3.83;;;62.40;18.00;;;;;;5012158;28;20402;-73
2022/05/15 11:53:56;;;;;;;3.10;3.00;;;62.50;17.40;;;;;;5012062;28;20414;-73
2022/05/15 11:56:28;;;;;;;3.00;2.90;;;62.40;17.30;;;;;;5012091;28;20445;-73
2022/05/15 11:59:15;;;;;;;3.10;2.90;;;61.80;17.30;;;;;;5010318;28;20476;-73
2022/05/15 12:01:48;;;;;;;2.87;2.77;;;61.30;17.30;;;;;;5011612;28;20416;-73
2022/05/15 12:04:41;;;;;;;2.70;2.60;;;60.80;17.60;;;;;;5012077;28;20837;-73
2022/05/15 12:07:06;;;;;;;2.80;2.70;;;60.60;17.30;;;;;;5011861;28;20426;-73
2022/05/15 12:09:41;;;;;;;2.70;2.60;;;60.70;17.30;;;;;;5010504;28;20488;-73
2022/05/15 12:12:23;;;;;;;2.73;2.63;;;60.90;17.40;;;;;;5011840;28;20213;-73
2022/05/15 12:15:23;;;;;;;2.83;2.73;;;60.90;17.30;;;;;;5011922;28;20465;-73
2022/05/15 12:17:59;;;;;;;2.90;2.80;;;60.70;17.40;;;;;;5012221;28;20837;-73
2022/05/15 12:20:30;;;;;;;2.83;2.73;;;60.60;17.50;;;;;;5015643;28;20482;-73
2022/05/15 12:23:04;;;;;;;2.87;2.77;;;60.20;17.30;;;;;;5015888;28;20405;-73
2022/05/15 12:25:43;;;;;;;3.17;3.07;;;60.00;17.50;;;;;;5014702;28;20517;-73
2022/05/15 12:30:53;;;;;;;2.80;2.70;;;60.10;17.50;;;;;;5015475;28;20394;-73
2022/05/15 12:33:26;;;;;;;2.50;2.40;;;59.70;17.40;;;;;;5014277;28;20410;-73
2022/05/15 12:35:52;;;;;;;2.50;2.40;;;59.40;17.60;;;;;;5015664;28;20540;-73
2022/05/15 12:38:22;;;;;;;2.53;2.43;;;59.60;17.60;;;;;;5015535;28;20430;-73
2022/05/15 12:41:01;;;;;;;2.50;2.40;;;59.60;17.10;;;;;;5015197;28;20429;-73
2022/05/15 12:43:26;;;;;;;3.00;2.90;;;59.30;16.90;;;;;;5015569;28;20504;-73
2022/05/15 12:45:52;;;;;;;2.50;2.40;;;59.20;17.00;;;;;;5015380;28;20442;-73
2022/05/15 12:48:22;;;;;;;2.60;2.40;;;59.00;17.20;;;;;;5015343;28;20183;-73
2022/05/15 12:50:48;;;;;;;2.63;2.53;;;58.80;17.20;;;;;;5015133;28;20198;-73
2022/05/15 12:53:23;;;;;;;2.47;2.37;;;58.70;17.30;;;;;;5015295;28;20526;-73
2022/05/15 12:55:50;;;;;;;2.10;2.00;;;58.60;17.50;;;;;;5015360;28;20413;-73
2022/05/15 12:58:28;;;;;;;2.43;2.33;;;58.60;17.50;;;;;;5013853;28;20461;-72
2022/05/15 13:00:55;;;;;;;2.30;2.20;;;58.40;17.50;;;;;;5014909;28;20445;-72
2022/05/15 13:03:21;;;;;;;2.60;2.33;;;58.00;17.30;;;;;;5014986;28;20407;-73
2022/05/15 13:05:55;;;;;;;2.60;2.40;;;57.60;17.30;;;;;;5015030;28;20981;-73
2022/05/15 13:08:21;;;;;;;2.40;2.20;;;57.00;17.40;;;;;;5014989;28;20469;-72
2022/05/15 13:11:01;;;;;;;1.97;1.63;;;56.30;17.50;;;;;;5014791;28;20369;-72
2022/05/15 13:13:35;;;;;;;1.60;1.50;;;55.50;17.70;;;;;;5015023;28;20168;-73
2022/05/15 13:16:03;;;;;;;1.80;1.70;;;54.60;17.80;;;;;;5014993;28;20376;-72
2022/05/15 13:18:32;;;;;;;1.97;1.87;;;53.80;18.00;;;;;;5014720;28;20446;-72
2022/05/15 13:21:34;;;;;;;1.70;1.60;;;53.10;18.30;;;;;;5014500;28;20450;-72
2022/05/15 13:24:00;;;;;;;1.80;1.70;;;52.10;18.40;;;;;;5014702;28;20468;-72
2022/05/15 13:26:34;;;;;;;1.80;1.70;;;51.20;18.50;;;;;;5014688;28;20415;-72
2022/05/15 13:29:01;;;;;;;1.50;1.40;;;50.60;18.80;;;;;;5014126;28;20496;-72
2022/05/15 13:31:28;;;;;;;1.80;1.70;;;49.90;18.80;;;;;;5013851;28;20465;-72
2022/05/15 13:33:54;;;;;;;1.90;1.80;;;49.00;19.10;;;;;;5013174;28;20446;-72